Time;durP1;ratioP1;P1;durP2;ratioP2;P2;SDS_P1;SDS_P2;PMS_P1;PMS_P2;Temp;Humidity;BMP_temperature;BMP_pressure;BME280_temperature;BME280_humidity;BME280_pressure;Samples;Min_cycle;Max_cycle;Signal;HPM_P1;HPM_P2
2023/07/02 00:00:12;;;;;;;16.15;5.72;;;;;;;;;;4883074;29;20044;-75
2023/07/02 00:02:38;;;;;;;17.52;6.32;;;;;;;;;;4881199;29;20347;-76
2023/07/02 00:05:04;;;;;;;15.65;6.35;;;;;;;;;;4882053;29;20044;-75
2023/07/02 00:07:31;;;;;;;17.65;6.10;;;;;;;;;;4882804;29;20055;-74
2023/07/02 00:09:57;;;;;;;18.13;6.25;;;;;;;;;;4881208;29;20484;-76
2023/07/02 00:12:23;;;;;;;19.50;7.35;;;;;;;;;;4880423;29;20044;-75
2023/07/02 00:14:52;;;;;;;23.17;7.25;;;;;;;;;;4880300;29;20244;-75
2023/07/02 00:17:18;;;;;;;25.52;7.03;;;;;;;;;;4881393;29;20067;-75
2023/07/02 00:19:46;;;;;;;21.38;7.07;;;;;;;;;;4882473;29;20947;-76
2023/07/02 00:22:12;;;;;;;19.23;7.35;;;;;;;;;;4884414;29;20060;-76
2023/07/02 00:24:38;;;;;;;16.60;6.93;;;;;;;;;;4887228;29;20076;-76
2023/07/02 00:27:04;;;;;;;18.08;6.80;;;;;;;;;;4882234;29;20080;-76
2023/07/02 00:29:30;;;;;;;21.58;7.57;;;;;;;;;;4882116;29;20063;-75
2023/07/02 00:31:57;;;;;;;20.30;7.32;;;;;;;;;;4882372;29;20087;-75
2023/07/02 00:34:23;;;;;;;24.30;7.22;;;;;;;;;;4869516;29;20518;-76
2023/07/02 00:36:49;;;;;;;21.85;7.50;;;;;;;;;;4881822;29;20537;-76
2023/07/02 00:39:17;;;;;;;22.23;7.80;;;;;;;;;;4882657;29;20578;-76
2023/07/02 00:41:46;;;;;;;24.30;8.80;;;;;;;;;;4882489;29;20176;-75
2023/07/02 00:44:12;;;;;;;26.30;7.75;;;;;;;;;;4882740;29;20098;-76
2023/07/02 00:46:38;;;;;;;20.42;7.25;;;;;;;;;;4879409;29;20079;-76
2023/07/02 00:49:05;;;;;;;17.38;7.60;;;;;;;;;;4882893;29;20064;-76
2023/07/02 00:51:31;;;;;;;25.77;7.50;;;;;;;;;;4881033;29;20056;-76
2023/07/02 00:53:58;;;;;;;23.15;8.48;;;;;;;;;;4869402;29;20056;-76
2023/07/02 00:56:25;;;;;;;21.00;7.43;;;;;;;;;;4880845;29;20052;-76
2023/07/02 00:58:52;;;;;;;25.73;7.82;;;;;;;;;;4864095;29;20194;-76
2023/07/02 01:01:19;;;;;;;21.23;8.15;;;;;;;;;;4880087;29;20055;-76
2023/07/02 01:03:54;;;;;;;21.80;8.32;;;;;;;;;;4879091;29;20583;-77
2023/07/02 01:06:25;;;;;;;27.83;9.32;;;;;;;;;;4878663;29;20056;-76
2023/07/02 01:08:52;;;;;;;29.33;8.38;;;;;;;;;;4864933;29;20120;-75
2023/07/02 01:11:19;;;;;;;23.15;7.95;;;;;;;;;;4883749;29;20059;-76
2023/07/02 01:13:46;;;;;;;21.10;8.30;;;;;;;;;;4880464;29;20059;-75
2023/07/02 01:16:12;;;;;;;22.35;8.30;;;;;;;;;;4875679;29;20055;-75
2023/07/02 01:18:38;;;;;;;24.60;9.00;;;;;;;;;;4877577;29;21287;-75
2023/07/02 01:21:07;;;;;;;29.23;7.45;;;;;;;;;;4865379;29;20136;-75
2023/07/02 01:23:34;;;;;;;26.45;8.60;;;;;;;;;;4878702;29;20047;-75
2023/07/02 01:26:00;;;;;;;26.17;7.95;;;;;;;;;;4878118;29;20051;-76
2023/07/02 01:28:35;;;;;;;30.58;9.18;;;;;;;;;;4863994;29;20044;-75
2023/07/02 01:31:01;;;;;;;20.42;8.88;;;;;;;;;;4886307;29;20087;-76
2023/07/02 01:33:27;;;;;;;29.90;8.70;;;;;;;;;;4879631;29;20044;-75
2023/07/02 01:35:53;;;;;;;27.45;9.18;;;;;;;;;;4866297;29;20071;-75
2023/07/02 01:38:19;;;;;;;33.58;9.43;;;;;;;;;;4880214;29;20565;-76
2023/07/02 01:40:45;;;;;;;27.45;9.52;;;;;;;;;;4870761;29;20106;-75
2023/07/02 01:43:11;;;;;;;27.45;8.70;;;;;;;;;;4882366;29;20045;-75
2023/07/02 01:45:38;;;;;;;25.80;8.65;;;;;;;;;;4878024;29;20076;-76
2023/07/02 01:48:04;;;;;;;28.98;9.43;;;;;;;;;;4881336;29;20075;-76
2023/07/02 01:50:30;;;;;;;23.35;8.85;;;;;;;;;;4881629;29;20692;-75
2023/07/02 01:52:56;;;;;;;26.50;9.07;;;;;;;;;;4876926;29;20040;-75
2023/07/02 01:55:23;;;;;;;26.33;9.27;;;;;;;;;;4866307;29;20059;-76
2023/07/02 01:57:49;;;;;;;25.13;9.57;;;;;;;;;;4880051;29;20051;-75
2023/07/02 02:00:15;;;;;;;22.40;8.68;;;;;;;;;;4879140;29;20535;-75
2023/07/02 02:02:42;;;;;;;26.52;8.43;;;;;;;;;;4882087;29;20691;-75
2023/07/02 02:05:09;;;;;;;34.30;9.75;;;;;;;;;;4880088;29;20056;-76
2023/07/02 02:07:36;;;;;;;31.55;9.48;;;;;;;;;;4896660;29;20493;-75
2023/07/02 02:10:04;;;;;;;27.80;9.55;;;;;;;;;;4880850;29;20080;-76
2023/07/02 02:12:30;;;;;;;31.90;9.73;;;;;;;;;;4883324;29;20083;-76
2023/07/02 02:14:56;;;;;;;28.35;9.85;;;;;;;;;;4881699;29;20111;-76
2023/07/02 02:17:23;;;;;;;33.17;9.95;;;;;;;;;;4882074;29;20413;-76
2023/07/02 02:19:49;;;;;;;33.10;10.00;;;;;;;;;;4864465;29;20056;-76
2023/07/02 02:22:16;;;;;;;24.25;9.82;;;;;;;;;;4879953;29;20044;-75
2023/07/02 02:24:42;;;;;;;31.48;10.00;;;;;;;;;;4881506;29;20047;-75
2023/07/02 02:27:08;;;;;;;31.95;9.32;;;;;;;;;;4882855;29;20067;-75
2023/07/02 02:29:35;;;;;;;37.60;9.88;;;;;;;;;;4856243;29;20071;-76
2023/07/02 02:32:01;;;;;;;30.73;9.82;;;;;;;;;;4862271;29;20180;-76
2023/07/02 02:34:28;;;;;;;33.75;10.35;;;;;;;;;;4862572;29;20078;-77
2023/07/02 02:36:55;;;;;;;29.83;10.02;;;;;;;;;;4878780;29;20049;-76
2023/07/02 02:39:21;;;;;;;27.17;10.50;;;;;;;;;;4863890;29;20231;-75
2023/07/02 02:41:47;;;;;;;30.80;9.60;;;;;;;;;;4857669;29;20104;-75
2023/07/02 02:44:13;;;;;;;30.25;10.40;;;;;;;;;;4860830;29;20055;-75
2023/07/02 02:46:39;;;;;;;31.70;9.55;;;;;;;;;;4863682;29;20618;-75
2023/07/02 02:49:05;;;;;;;30.02;9.30;;;;;;;;;;4847978;29;20045;-75
2023/07/02 02:51:31;;;;;;;39.30;12.05;;;;;;;;;;4844976;29;20056;-75
2023/07/02 02:53:57;;;;;;;37.22;10.40;;;;;;;;;;4863087;29;20129;-76
2023/07/02 02:56:24;;;;;;;44.78;10.77;;;;;;;;;;4864733;29;20087;-76
2023/07/02 02:58:50;;;;;;;30.67;9.88;;;;;;;;;;4847866;29;20048;-75
2023/07/02 03:01:16;;;;;;;35.47;10.63;;;;;;;;;;4863405;29;20409;-75
2023/07/02 03:03:45;;;;;;;34.45;9.38;;;;;;;;;;4861468;29;20045;-75
2023/07/02 03:06:12;;;;;;;26.95;10.15;;;;;;;;;;4862418;29;20230;-76
2023/07/02 03:08:38;;;;;;;31.50;9.25;;;;;;;;;;4864535;29;20091;-75
2023/07/02 03:11:04;;;;;;;32.92;9.35;;;;;;;;;;4866922;29;20104;-76
2023/07/02 03:13:30;;;;;;;32.88;9.77;;;;;;;;;;4867773;29;20052;-76
2023/07/02 03:15:56;;;;;;;32.15;10.95;;;;;;;;;;4863182;29;20047;-76
2023/07/02 03:18:22;;;;;;;33.53;9.68;;;;;;;;;;4856853;29;20056;-75
2023/07/02 03:20:48;;;;;;;30.63;10.10;;;;;;;;;;4883450;29;20051;-75
2023/07/02 03:23:14;;;;;;;25.85;9.00;;;;;;;;;;4883856;29;20068;-75
2023/07/02 03:25:40;;;;;;;31.67;10.27;;;;;;;;;;4868402;29;20782;-75
2023/07/02 03:28:07;;;;;;;31.75;9.25;;;;;;;;;;4861992;29;20791;-75
2023/07/02 03:30:33;;;;;;;26.13;8.77;;;;;;;;;;4874741;29;20079;-76
2023/07/02 03:32:59;;;;;;;32.75;10.60;;;;;;;;;;4877840;29;20063;-75
2023/07/02 03:35:25;;;;;;;31.88;10.65;;;;;;;;;;4880153;29;20076;-75
2023/07/02 03:37:51;;;;;;;29.38;9.88;;;;;;;;;;4880891;29;20052;-75
2023/07/02 03:40:17;;;;;;;31.80;9.95;;;;;;;;;;4880424;29;20938;-75
2023/07/02 03:42:43;;;;;;;27.58;9.18;;;;;;;;;;4880343;29;20096;-75
2023/07/02 03:45:10;;;;;;;34.08;10.32;;;;;;;;;;4879797;29;22094;-75
2023/07/02 03:47:36;;;;;;;30.63;9.55;;;;;;;;;;4878908;29;20139;-76
2023/07/02 03:50:02;;;;;;;33.38;10.57;;;;;;;;;;4878593;29;20084;-76
2023/07/02 03:52:28;;;;;;;35.97;10.82;;;;;;;;;;4883017;29;20583;-76
2023/07/02 03:54:54;;;;;;;38.97;9.73;;;;;;;;;;4866225;29;20055;-76
2023/07/02 03:57:20;;;;;;;35.42;9.57;;;;;;;;;;4878055;29;20052;-76
2023/07/02 03:59:46;;;;;;;29.35;10.45;;;;;;;;;;4881644;29;20056;-76
2023/07/02 04:02:12;;;;;;;36.00;10.23;;;;;;;;;;4881255;29;20101;-76
2023/07/02 04:04:39;;;;;;;28.98;9.15;;;;;;;;;;4865611;29;20040;-76
2023/07/02 04:07:05;;;;;;;33.58;9.18;;;;;;;;;;4873399;29;20075;-75
2023/07/02 04:09:32;;;;;;;38.80;10.13;;;;;;;;;;4869436;29;20043;-75
2023/07/02 04:11:58;;;;;;;32.90;10.35;;;;;;;;;;4883272;29;20040;-75
2023/07/02 04:14:24;;;;;;;28.75;9.32;;;;;;;;;;4880389;29;20158;-75
2023/07/02 04:16:51;;;;;;;30.80;9.55;;;;;;;;;;4880858;29;20100;-75
2023/07/02 04:19:17;;;;;;;28.17;9.93;;;;;;;;;;4881205;29;20064;-76
2023/07/02 04:21:43;;;;;;;28.05;8.98;;;;;;;;;;4882566;29;20155;-75
2023/07/02 04:24:09;;;;;;;34.63;10.27;;;;;;;;;;4881141;29;20040;-75
2023/07/02 04:26:36;;;;;;;28.25;9.07;;;;;;;;;;4881433;29;20740;-74
2023/07/02 04:29:02;;;;;;;35.60;10.13;;;;;;;;;;4880564;29;20075;-75
2023/07/02 04:31:28;;;;;;;27.10;8.45;;;;;;;;;;4884781;29;20052;-74
2023/07/02 04:33:54;;;;;;;36.15;9.82;;;;;;;;;;4897499;29;22204;-75
2023/07/02 04:36:21;;;;;;;28.38;9.50;;;;;;;;;;4880172;29;21013;-75
2023/07/02 04:38:47;;;;;;;27.25;8.45;;;;;;;;;;4882021;29;20425;-75
2023/07/02 04:41:13;;;;;;;22.88;7.93;;;;;;;;;;4883392;29;20412;-76
2023/07/02 04:43:39;;;;;;;28.10;9.48;;;;;;;;;;4867043;29;20441;-75
2023/07/02 04:46:07;;;;;;;37.95;10.50;;;;;;;;;;4885508;29;20135;-75
2023/07/02 04:48:33;;;;;;;29.30;8.55;;;;;;;;;;4884823;29;20044;-75
2023/07/02 04:50:59;;;;;;;28.13;9.10;;;;;;;;;;4885940;29;20051;-75
2023/07/02 04:53:25;;;;;;;26.17;8.98;;;;;;;;;;4868606;29;20044;-75
2023/07/02 04:55:51;;;;;;;31.55;9.85;;;;;;;;;;4884453;29;20051;-76
2023/07/02 04:58:17;;;;;;;24.42;8.35;;;;;;;;;;4883145;29;20044;-75
2023/07/02 05:00:43;;;;;;;20.25;7.95;;;;;;;;;;4885209;29;20056;-75
2023/07/02 05:03:09;;;;;;;25.52;8.30;;;;;;;;;;4883592;29;20054;-76
2023/07/02 05:05:35;;;;;;;21.65;7.45;;;;;;;;;;4884641;29;20047;-76
2023/07/02 05:08:01;;;;;;;25.48;8.45;;;;;;;;;;4883213;29;20096;-76
2023/07/02 05:10:27;;;;;;;31.20;8.88;;;;;;;;;;4884661;29;20072;-76
2023/07/02 05:12:53;;;;;;;35.47;9.65;;;;;;;;;;4884433;29;20195;-76
2023/07/02 05:15:20;;;;;;;26.17;8.50;;;;;;;;;;4873969;29;20050;-75
2023/07/02 05:17:46;;;;;;;26.88;8.82;;;;;;;;;;4886904;29;20053;-75
2023/07/02 05:20:12;;;;;;;25.52;8.40;;;;;;;;;;4871335;29;20083;-75
2023/07/02 05:22:38;;;;;;;33.63;9.27;;;;;;;;;;4883084;29;20069;-74
2023/07/02 05:25:04;;;;;;;26.50;8.55;;;;;;;;;;4884342;29;20048;-74
2023/07/02 05:27:30;;;;;;;24.15;7.80;;;;;;;;;;4859804;29;20055;-75
2023/07/02 05:29:57;;;;;;;23.25;8.68;;;;;;;;;;4869524;29;20139;-75
2023/07/02 05:32:23;;;;;;;32.17;8.43;;;;;;;;;;4885745;29;20071;-75
2023/07/02 05:34:49;;;;;;;19.85;7.32;;;;;;;;;;4883689;29;20421;-75
2023/07/02 05:37:15;;;;;;;17.55;6.45;;;;;;;;;;4870865;29;20973;-75
2023/07/02 05:39:41;;;;;;;16.98;7.10;;;;;;;;;;4884741;29;20049;-75
2023/07/02 05:42:08;;;;;;;18.83;6.57;;;;;;;;;;4885631;29;20037;-75
2023/07/02 05:44:34;;;;;;;21.15;7.05;;;;;;;;;;4884395;29;20981;-75
2023/07/02 05:47:00;;;;;;;18.27;5.95;;;;;;;;;;4869156;29;20052;-75
2023/07/02 05:49:26;;;;;;;19.08;5.78;;;;;;;;;;4883889;29;20043;-75
2023/07/02 05:51:52;;;;;;;20.02;6.32;;;;;;;;;;4884724;29;20155;-75
2023/07/02 05:54:18;;;;;;;20.15;5.97;;;;;;;;;;4882458;29;20049;-75
2023/07/02 05:56:44;;;;;;;20.00;6.30;;;;;;;;;;4883234;29;20044;-75
2023/07/02 05:59:12;;;;;;;22.90;6.90;;;;;;;;;;4890155;29;20906;-76
2023/07/02 06:01:38;;;;;;;16.55;6.05;;;;;;;;;;4869072;29;20755;-75
2023/07/02 06:04:04;;;;;;;17.63;5.90;;;;;;;;;;4884228;29;20044;-74
2023/07/02 06:06:31;;;;;;;24.90;6.13;;;;;;;;;;4891070;29;20127;-75
2023/07/02 06:08:57;;;;;;;18.33;5.15;;;;;;;;;;4860670;29;20036;-75
2023/07/02 06:11:23;;;;;;;19.17;5.22;;;;;;;;;;4881831;29;20048;-75
2023/07/02 06:13:49;;;;;;;20.38;5.72;;;;;;;;;;4885488;29;20049;-76
2023/07/02 06:16:15;;;;;;;18.73;6.15;;;;;;;;;;4884369;29;20508;-75
2023/07/02 06:18:42;;;;;;;19.33;6.32;;;;;;;;;;4884541;29;21334;-75
2023/07/02 06:21:08;;;;;;;24.92;5.70;;;;;;;;;;4883265;29;20656;-75
2023/07/02 06:23:43;;;;;;;15.45;5.57;;;;;;;;;;4897156;29;20970;-75
2023/07/02 06:26:09;;;;;;;17.27;5.10;;;;;;;;;;4874396;29;21889;-75
2023/07/02 06:28:35;;;;;;;23.13;5.60;;;;;;;;;;4885563;29;20048;-74
2023/07/02 06:31:02;;;;;;;21.83;5.60;;;;;;;;;;4882802;29;20167;-74
2023/07/02 06:33:29;;;;;;;17.60;5.65;;;;;;;;;;4885630;29;20048;-75
2023/07/02 06:35:55;;;;;;;15.98;5.38;;;;;;;;;;4884845;29;20539;-75
2023/07/02 06:38:21;;;;;;;14.60;6.00;;;;;;;;;;4889142;29;20048;-75
2023/07/02 06:40:47;;;;;;;14.75;5.03;;;;;;;;;;4880011;29;20049;-75
2023/07/02 06:43:13;;;;;;;15.27;5.30;;;;;;;;;;4879591;29;20080;-75
2023/07/02 06:45:39;;;;;;;14.63;5.20;;;;;;;;;;4879930;29;20087;-75
2023/07/02 06:48:05;;;;;;;21.80;4.93;;;;;;;;;;4880729;29;20139;-74
2023/07/02 06:50:31;;;;;;;17.42;4.78;;;;;;;;;;4881626;29;20046;-75
2023/07/02 06:52:57;;;;;;;16.27;5.13;;;;;;;;;;4879898;29;20080;-74
2023/07/02 06:55:23;;;;;;;19.17;5.25;;;;;;;;;;4882893;29;20561;-74
2023/07/02 06:57:49;;;;;;;17.10;5.13;;;;;;;;;;4882103;29;20092;-74
2023/07/02 07:00:16;;;;;;;19.10;5.03;;;;;;;;;;4887284;29;20445;-75
2023/07/02 07:02:42;;;;;;;14.20;4.75;;;;;;;;;;4869099;29;20202;-75
2023/07/02 07:05:09;;;;;;;14.52;3.90;;;;;;;;;;4886768;29;20183;-75
2023/07/02 07:07:35;;;;;;;10.23;3.47;;;;;;;;;;4883412;29;20036;-76
2023/07/02 07:10:01;;;;;;;11.30;3.63;;;;;;;;;;4891069;29;20259;-76
2023/07/02 07:12:27;;;;;;;9.82;3.47;;;;;;;;;;4903236;29;20055;-73
2023/07/02 07:14:53;;;;;;;18.83;4.50;;;;;;;;;;4908687;29;20048;-75
2023/07/02 07:17:20;;;;;;;14.63;4.60;;;;;;;;;;4901788;29;20040;-74
2023/07/02 07:19:46;;;;;;;13.15;4.50;;;;;;;;;;4887223;29;20890;-75
2023/07/02 07:22:12;;;;;;;22.17;5.28;;;;;;;;;;4883964;29;20108;-75
2023/07/02 07:24:38;;;;;;;14.18;4.70;;;;;;;;;;4885240;29;20044;-75
2023/07/02 07:27:04;;;;;;;14.23;4.25;;;;;;;;;;4864126;29;20378;-73
2023/07/02 07:29:30;;;;;;;16.08;4.20;;;;;;;;;;4880043;29;20085;-73
2023/07/02 07:31:56;;;;;;;15.45;4.03;;;;;;;;;;4878797;29;20051;-75
2023/07/02 07:34:22;;;;;;;20.83;4.53;;;;;;;;;;4894223;29;20116;-76
2023/07/02 07:36:48;;;;;;;16.27;3.55;;;;;;;;;;4878902;29;20048;-75
2023/07/02 07:39:15;;;;;;;10.38;4.15;;;;;;;;;;4863243;29;20131;-76
2023/07/02 07:41:41;;;;;;;14.02;3.53;;;;;;;;;;4853571;29;20272;-75
2023/07/02 07:44:07;;;;;;;19.83;3.85;;;;;;;;;;4884038;29;20453;-75
2023/07/02 07:46:33;;;;;;;15.80;4.03;;;;;;;;;;4878301;29;20066;-75
2023/07/02 07:48:59;;;;;;;10.63;2.95;;;;;;;;;;4882333;29;20072;-75
2023/07/02 07:51:25;;;;;;;10.02;3.45;;;;;;;;;;4881205;29;20049;-76
2023/07/02 07:53:51;;;;;;;16.17;3.97;;;;;;;;;;4867681;29;20045;-76
2023/07/02 07:56:17;;;;;;;11.48;3.20;;;;;;;;;;4882625;29;22149;-76
2023/07/02 07:58:43;;;;;;;12.10;3.58;;;;;;;;;;4882638;29;20075;-76
2023/07/02 08:01:09;;;;;;;15.73;3.72;;;;;;;;;;4881646;29;20053;-76
2023/07/02 08:03:38;;;;;;;10.85;2.70;;;;;;;;;;4872994;29;20048;-76
2023/07/02 08:06:04;;;;;;;10.70;3.67;;;;;;;;;;4882994;29;20044;-76
2023/07/02 08:08:30;;;;;;;10.32;3.15;;;;;;;;;;4884358;29;20389;-77
2023/07/02 08:10:56;;;;;;;12.27;3.30;;;;;;;;;;4882160;29;20119;-76
2023/07/02 08:13:22;;;;;;;14.68;3.55;;;;;;;;;;4884677;29;20047;-76
2023/07/02 08:15:48;;;;;;;7.97;2.42;;;;;;;;;;4886001;29;20207;-76
2023/07/02 08:18:14;;;;;;;12.73;3.28;;;;;;;;;;4887385;29;20501;-75
2023/07/02 08:20:40;;;;;;;10.65;3.00;;;;;;;;;;4885722;29;22574;-75
2023/07/02 08:23:07;;;;;;;12.90;2.85;;;;;;;;;;4853405;29;20044;-76
2023/07/02 08:25:33;;;;;;;10.70;3.55;;;;;;;;;;4887709;29;20056;-77
2023/07/02 08:27:59;;;;;;;10.18;3.70;;;;;;;;;;4875234;29;20139;-76
2023/07/02 08:30:25;;;;;;;11.93;2.58;;;;;;;;;;4884343;29;20060;-75
2023/07/02 08:32:54;;;;;;;9.02;2.15;;;;;;;;;;4868672;29;20139;-76
2023/07/02 08:35:20;;;;;;;18.45;2.60;;;;;;;;;;4884429;29;20144;-76
2023/07/02 08:37:46;;;;;;;11.13;3.15;;;;;;;;;;4884524;29;20222;-75
2023/07/02 08:40:21;;;;;;;7.72;2.63;;;;;;;;;;4884019;29;20060;-75
2023/07/02 08:42:47;;;;;;;10.52;3.30;;;;;;;;;;4867800;29;20683;-76
2023/07/02 08:45:15;;;;;;;11.45;3.63;;;;;;;;;;4885452;29;20040;-76
2023/07/02 08:47:41;;;;;;;17.25;3.95;;;;;;;;;;4884975;29;20210;-76
2023/07/02 08:50:08;;;;;;;10.80;3.45;;;;;;;;;;4883450;29;20048;-76
2023/07/02 08:52:34;;;;;;;15.15;3.40;;;;;;;;;;4875269;29;21953;-76
2023/07/02 08:55:00;;;;;;;11.73;3.40;;;;;;;;;;4876469;29;20050;-76
2023/07/02 08:57:26;;;;;;;9.00;2.50;;;;;;;;;;4876230;29;20139;-76
2023/07/02 08:59:52;;;;;;;11.00;3.58;;;;;;;;;;4883925;29;20070;-74
2023/07/02 09:02:18;;;;;;;11.73;3.20;;;;;;;;;;4886859;29;20084;-74
2023/07/02 09:04:44;;;;;;;14.80;3.65;;;;;;;;;;4886096;29;20040;-74
2023/07/02 09:07:11;;;;;;;12.75;4.03;;;;;;;;;;4882246;29;20067;-73
2023/07/02 09:09:50;;;;;;;14.18;4.13;;;;;;;;;;4885613;29;20119;-73
2023/07/02 09:12:27;;;;;;;13.20;3.10;;;;;;;;;;4885891;29;20058;-72
2023/07/02 09:15:06;;;;;;;11.48;3.50;;;;;;;;;;4885143;29;20044;-72
2023/07/02 09:17:36;;;;;;;14.30;3.20;;;;;;;;;;4868276;29;20044;-73
2023/07/02 09:20:08;;;;;;;13.43;4.00;;;;;;;;;;4880898;29;20060;-74
2023/07/02 09:22:34;;;;;;;11.00;3.03;;;;;;;;;;4882882;29;20048;-74
2023/07/02 09:25:00;;;;;;;13.30;2.65;;;;;;;;;;4879507;29;20080;-74
2023/07/02 09:27:41;;;;;;;12.02;3.45;;;;;;;;;;4882991;29;20047;-73
2023/07/02 09:30:15;;;;;;;11.57;2.67;;;;;;;;;;4880365;29;21101;-74
2023/07/02 09:32:42;;;;;;;10.00;2.88;;;;;;;;;;4881004;29;20051;-73
2023/07/02 09:35:08;;;;;;;10.88;2.80;;;;;;;;;;4882338;29;20541;-74
2023/07/02 09:37:34;;;;;;;11.25;3.03;;;;;;;;;;4882249;29;20563;-73
2023/07/02 09:40:01;;;;;;;13.18;3.92;;;;;;;;;;4879779;29;20139;-73
2023/07/02 09:42:28;;;;;;;11.25;2.40;;;;;;;;;;4882708;29;20087;-73
2023/07/02 09:44:58;;;;;;;6.85;2.08;;;;;;;;;;4881956;29;20054;-73
2023/07/02 09:47:25;;;;;;;8.60;1.88;;;;;;;;;;4882806;29;20051;-72
2023/07/02 09:49:55;;;;;;;10.07;2.63;;;;;;;;;;4881978;29;20923;-73
2023/07/02 09:52:22;;;;;;;7.07;2.00;;;;;;;;;;4880781;29;20303;-73
2023/07/02 09:54:48;;;;;;;8.77;2.22;;;;;;;;;;4879587;29;20701;-73
2023/07/02 09:57:14;;;;;;;6.30;2.20;;;;;;;;;;4881416;29;20057;-73
2023/07/02 09:59:41;;;;;;;15.63;2.70;;;;;;;;;;4880875;29;20146;-74
2023/07/02 10:02:09;;;;;;;6.43;2.40;;;;;;;;;;4880961;29;20048;-73
2023/07/02 10:04:42;;;;;;;6.82;2.45;;;;;;;;;;4875317;29;20520;-73
2023/07/02 10:07:08;;;;;;;14.68;3.08;;;;;;;;;;4878807;29;20139;-73
2023/07/02 10:09:41;;;;;;;9.35;2.60;;;;;;;;;;4883096;29;20055;-73
2023/07/02 10:12:19;;;;;;;8.87;2.30;;;;;;;;;;4879552;29;20059;-74
2023/07/02 10:14:46;;;;;;;6.50;2.35;;;;;;;;;;4881213;29;20513;-74
2023/07/02 10:17:23;;;;;;;6.50;2.30;;;;;;;;;;4887249;29;20055;-74
2023/07/02 10:19:53;;;;;;;9.15;2.58;;;;;;;;;;4881727;29;20037;-74
2023/07/02 10:22:19;;;;;;;7.47;2.03;;;;;;;;;;4876924;29;20063;-74
2023/07/02 10:24:57;;;;;;;7.13;2.13;;;;;;;;;;4878879;29;20067;-74
2023/07/02 10:27:34;;;;;;;9.70;2.65;;;;;;;;;;4876976;29;20063;-73
2023/07/02 10:30:00;;;;;;;11.13;3.10;;;;;;;;;;4879035;29;20091;-74
2023/07/02 10:32:30;;;;;;;13.60;2.72;;;;;;;;;;4883416;29;20465;-73
2023/07/02 10:34:58;;;;;;;9.80;2.60;;;;;;;;;;4876806;29;20178;-73
2023/07/02 10:37:24;;;;;;;8.43;2.35;;;;;;;;;;4866413;29;20044;-74
2023/07/02 10:39:52;;;;;;;10.18;2.22;;;;;;;;;;4877674;29;20083;-74
2023/07/02 10:42:18;;;;;;;3.80;1.95;;;;;;;;;;4879478;29;20068;-73
2023/07/02 10:44:48;;;;;;;12.35;2.15;;;;;;;;;;4881025;29;20126;-74
2023/07/02 10:47:14;;;;;;;8.82;1.70;;;;;;;;;;4884039;29;20056;-73
2023/07/02 10:49:40;;;;;;;9.02;2.03;;;;;;;;;;4878868;29;20127;-73
2023/07/02 10:52:10;;;;;;;5.35;1.88;;;;;;;;;;4879660;29;20088;-73
2023/07/02 10:54:42;;;;;;;8.25;2.20;;;;;;;;;;4875726;29;20059;-75
2023/07/02 10:57:09;;;;;;;9.45;2.60;;;;;;;;;;4883918;29;20053;-72
2023/07/02 10:59:35;;;;;;;19.20;2.58;;;;;;;;;;4878692;29;20183;-74
2023/07/02 11:02:03;;;;;;;8.98;2.05;;;;;;;;;;4876455;29;21656;-73
2023/07/02 11:04:30;;;;;;;9.85;2.40;;;;;;;;;;4882995;29;20044;-74
2023/07/02 11:06:56;;;;;;;9.88;2.50;;;;;;;;;;4877635;29;20170;-73
2023/07/02 11:09:23;;;;;;;13.82;2.72;;;;;;;;;;4881589;29;20451;-73
2023/07/02 11:11:59;;;;;;;8.77;2.40;;;;;;;;;;4877999;29;20265;-74
2023/07/02 11:14:29;;;;;;;9.02;2.38;;;;;;;;;;4881671;29;20163;-73
2023/07/02 11:16:56;;;;;;;11.98;2.65;;;;;;;;;;4880768;29;20454;-72
2023/07/02 11:19:25;;;;;;;9.63;3.10;;;;;;;;;;4888954;29;20100;-73
2023/07/02 11:21:52;;;;;;;11.63;2.58;;;;;;;;;;4881763;29;20051;-73
2023/07/02 11:24:26;;;;;;;11.13;2.53;;;;;;;;;;4883067;29;20623;-74
2023/07/02 11:26:52;;;;;;;6.47;2.63;;;;;;;;;;4877856;29;20087;-73
2023/07/02 11:29:19;;;;;;;7.63;2.33;;;;;;;;;;4880526;29;20706;-73
2023/07/02 11:31:45;;;;;;;5.05;2.40;;;;;;;;;;4867727;29;20138;-73
2023/07/02 11:34:12;;;;;;;8.95;2.20;;;;;;;;;;4885207;29;20048;-74
2023/07/02 11:36:38;;;;;;;10.95;2.38;;;;;;;;;;4878300;29;20142;-73
2023/07/02 11:39:05;;;;;;;7.68;2.40;;;;;;;;;;4877275;29;20047;-72
2023/07/02 11:41:38;;;;;;;9.32;2.50;;;;;;;;;;4861060;29;22048;-73
2023/07/02 11:44:04;;;;;;;11.73;2.67;;;;;;;;;;4876552;29;20058;-73
2023/07/02 11:46:30;;;;;;;7.15;1.90;;;;;;;;;;4866465;29;20048;-73
2023/07/02 11:48:56;;;;;;;5.18;2.10;;;;;;;;;;4860637;29;20048;-73
2023/07/02 11:51:22;;;;;;;10.77;2.67;;;;;;;;;;4861799;29;20126;-73
2023/07/02 11:53:48;;;;;;;10.38;2.88;;;;;;;;;;4879445;29;20090;-73
2023/07/02 11:56:14;;;;;;;16.20;2.28;;;;;;;;;;4884689;29;20048;-74
2023/07/02 11:58:41;;;;;;;10.90;2.92;;;;;;;;;;4884727;29;20551;-73
2023/07/02 12:01:07;;;;;;;10.15;2.50;;;;;;;;;;4883552;29;20045;-73
2023/07/02 12:03:33;;;;;;;8.82;2.67;;;;;;;;;;4879980;29;21624;-73
2023/07/02 12:05:59;;;;;;;7.55;2.05;;;;;;;;;;4883871;29;20047;-73
2023/07/02 12:08:25;;;;;;;5.50;2.70;;;;;;;;;;4884565;29;20401;-73
2023/07/02 12:10:51;;;;;;;6.28;2.50;;;;;;;;;;4883728;29;20202;-73
2023/07/02 12:13:17;;;;;;;8.70;2.40;;;;;;;;;;4885327;29;20048;-73
2023/07/02 12:15:43;;;;;;;6.10;2.08;;;;;;;;;;4882362;29;20044;-73
2023/07/02 12:18:10;;;;;;;9.02;2.53;;;;;;;;;;4880792;29;20644;-72
2023/07/02 12:20:38;;;;;;;10.05;2.33;;;;;;;;;;4865888;29;20055;-73
2023/07/02 12:23:05;;;;;;;6.80;2.08;;;;;;;;;;4880501;29;20052;-73
2023/07/02 12:25:31;;;;;;;7.25;2.13;;;;;;;;;;4880971;29;20123;-72
2023/07/02 12:27:57;;;;;;;12.73;3.20;;;;;;;;;;4876565;29;20151;-73
2023/07/02 12:30:23;;;;;;;8.23;2.70;;;;;;;;;;4865075;29;20092;-73
2023/07/02 12:32:49;;;;;;;14.27;2.97;;;;;;;;;;4885774;29;20048;-73
2023/07/02 12:35:15;;;;;;;17.10;2.92;;;;;;;;;;4863598;29;20047;-72
2023/07/02 12:37:45;;;;;;;6.10;2.58;;;;;;;;;;4879355;29;20469;-72
2023/07/02 12:40:12;;;;;;;10.82;3.05;;;;;;;;;;4877916;29;20060;-73
2023/07/02 12:42:38;;;;;;;8.82;2.60;;;;;;;;;;4878486;29;20135;-74
2023/07/02 12:45:06;;;;;;;5.38;2.80;;;;;;;;;;4880362;29;20052;-75
2023/07/02 12:47:32;;;;;;;8.95;2.83;;;;;;;;;;4878170;29;20044;-74
2023/07/02 12:49:58;;;;;;;7.75;2.65;;;;;;;;;;4878902;29;20594;-72
2023/07/02 12:52:24;;;;;;;5.60;2.95;;;;;;;;;;4881094;29;20174;-72
2023/07/02 12:54:50;;;;;;;9.38;2.80;;;;;;;;;;4880626;29;20093;-72
2023/07/02 12:57:17;;;;;;;6.38;2.97;;;;;;;;;;4879763;29;20095;-73
2023/07/02 12:59:44;;;;;;;6.90;3.05;;;;;;;;;;4865489;29;20804;-73
2023/07/02 13:02:10;;;;;;;12.52;3.05;;;;;;;;;;4880559;29;20135;-74
2023/07/02 13:04:37;;;;;;;10.45;2.83;;;;;;;;;;4882537;29;20048;-72
2023/07/02 13:07:03;;;;;;;11.20;3.25;;;;;;;;;;4877554;29;20756;-73
2023/07/02 13:09:29;;;;;;;11.10;3.58;;;;;;;;;;4878531;29;20053;-73
2023/07/02 13:11:55;;;;;;;10.85;3.78;;;;;;;;;;4880195;29;20139;-73
2023/07/02 13:14:21;;;;;;;13.60;3.70;;;;;;;;;;4881680;29;20409;-73
2023/07/02 13:16:47;;;;;;;10.68;3.22;;;;;;;;;;4879734;29;20554;-73
2023/07/02 13:19:15;;;;;;;13.75;3.88;;;;;;;;;;4876626;29;20062;-73
2023/07/02 13:21:41;;;;;;;9.05;3.15;;;;;;;;;;4881543;29;20612;-73
2023/07/02 13:24:07;;;;;;;8.57;3.63;;;;;;;;;;4880387;29;20066;-73
2023/07/02 13:26:34;;;;;;;8.00;3.38;;;;;;;;;;4882246;29;20052;-73
2023/07/02 13:29:00;;;;;;;9.88;3.08;;;;;;;;;;4880523;29;20072;-73
2023/07/02 13:31:26;;;;;;;14.45;3.53;;;;;;;;;;4880557;29;20163;-72
2023/07/02 13:33:52;;;;;;;9.70;3.30;;;;;;;;;;4876311;29;20051;-73
2023/07/02 13:36:18;;;;;;;10.35;3.35;;;;;;;;;;4878325;29;20870;-73
2023/07/02 13:38:44;;;;;;;12.55;4.10;;;;;;;;;;4879108;29;20468;-73
2023/07/02 13:41:10;;;;;;;14.82;5.25;;;;;;;;;;4877216;29;20087;-73
2023/07/02 13:43:36;;;;;;;8.98;3.88;;;;;;;;;;4880014;29;20044;-73
2023/07/02 13:46:03;;;;;;;10.43;4.03;;;;;;;;;;4878615;29;20091;-73
2023/07/02 13:48:29;;;;;;;7.57;3.72;;;;;;;;;;4875373;29;20053;-73
2023/07/02 13:50:55;;;;;;;12.23;3.90;;;;;;;;;;4877435;29;20071;-73
2023/07/02 13:53:21;;;;;;;11.10;3.55;;;;;;;;;;4876825;29;20613;-74
2023/07/02 13:55:47;;;;;;;13.75;3.72;;;;;;;;;;4875990;29;20037;-73
2023/07/02 13:58:13;;;;;;;9.43;3.85;;;;;;;;;;4879834;29;20044;-72
2023/07/02 14:00:39;;;;;;;11.15;3.83;;;;;;;;;;4879236;29;20386;-73
2023/07/02 14:03:06;;;;;;;13.40;4.18;;;;;;;;;;4881266;29;20107;-73
2023/07/02 14:05:32;;;;;;;13.68;3.67;;;;;;;;;;4881594;29;20048;-73
2023/07/02 14:07:58;;;;;;;12.23;3.40;;;;;;;;;;4863574;29;20496;-73
2023/07/02 14:10:25;;;;;;;9.15;3.85;;;;;;;;;;4881833;29;20154;-73
2023/07/02 14:12:51;;;;;;;10.70;3.88;;;;;;;;;;4880872;29;20643;-72
2023/07/02 14:15:17;;;;;;;12.75;3.70;;;;;;;;;;4882174;29;20047;-73
2023/07/02 14:17:43;;;;;;;4.68;2.15;;;;;;;;;;4878998;29;20056;-73
2023/07/02 14:20:09;;;;;;;11.13;3.70;;;;;;;;;;4881704;29;21770;-73
2023/07/02 14:22:35;;;;;;;8.38;3.38;;;;;;;;;;4878977;29;20048;-74
2023/07/02 14:25:01;;;;;;;7.82;4.10;;;;;;;;;;4881127;29;20713;-74
2023/07/02 14:27:27;;;;;;;13.65;4.15;;;;;;;;;;4880052;29;20036;-72